VIRTUAL NORWEGIAN AEROCLUB

VIRTUAL NORWEGIAN AEROCLUB! A new look to our va.




 METAR AND TAF INFORMATION
METAR FOR GMAD
ADDS - METARS form results

(2047 UTC 09 August 2020)
Data provider http://aviationweather.gov/metar/data/
 
METAR text: GMAD 092030Z 21006KT 8000 NSC 22/19 Q1013 NOSIG
Conditions at: GMAD (AL MASSIRA MC , MA) observed 2030 UTC 09 August 2020
Temperature: 22.0°C (72°F)
Dewpoint: 19.0°C (66°F) [RH = 83%]
Pressure (altimeter): 29.91 inches Hg (1013.0 mb)
Winds: from the SSW (210 degrees) at 7 MPH (6 knots; 3.1 m/s)
Visibility: 5 miles ( 8 km)
Ceiling: at least 12,000 feet AGL
Clouds: sky clear below 12,000 feet AGL
Weather: no significant weather observed at this time

METAR text: GMAD 092000Z 21006KT 8000 NSC 22/19 Q1012 NOSIG
Conditions at: GMAD (AL MASSIRA MC , MA) observed 2000 UTC 09 August 2020
Temperature: 22.0°C (72°F)
Dewpoint: 19.0°C (66°F) [RH = 83%]
Pressure (altimeter): 29.88 inches Hg (1012.0 mb)
Winds: from the SSW (210 degrees) at 7 MPH (6 knots; 3.1 m/s)
Visibility: 5 miles ( 8 km)
Ceiling: at least 12,000 feet AGL
Clouds: sky clear below 12,000 feet AGL
Weather: no significant weather observed at this time

Forecast for: GMAD (AL MASSIRA MC , MA)
Text: TAF GMAD 091700Z 0918/1024 20006KT 6000 NSC
Forecast period: 1800 UTC 09 August 2020 to 1200 UTC 10 August 2020
Forecast type: FROM: standard forecast or significant change
Winds: from the SSW (200 degrees) at 7 MPH (6 knots; 3.1 m/s)
Visibility: 4 miles (6 km)
Ceiling: unknown
Clouds: missing
Weather: no significant weather forecast for this period
Text: TEMPO 0921/1011 SCT006 BKN016
Forecast period: 2100 UTC 09 August 2020 to 1100 UTC 10 August 2020
Forecast type: TEMPORARY: The following changes expected for less than half the time period
Visibility: missing
Ceiling: 1600 feet AGL
Clouds: scattered clouds at 600 feet AGL
broken clouds at 1600 feet AGL
Weather: no significant weather forecast for this period
Text: BECMG 1012/1014 28012KT
Forecast period: 1200 UTC 10 August 2020 to 0000 UTC 11 August 2020
Forecast type: BECOMING: Conditions expected to become as follows by 1400 UTC 10 August 2020
Winds: from the W (280 degrees) at 14 MPH (12 knots; 6.2 m/s)
Visibility: 4 miles (6 km)
Ceiling: unknown
Clouds: missing
Weather: no significant weather forecast for this period

 AIRPORT MAP

 RUNWAY INFORMATION
Runway 10 Runway length 10499 ft Runway width 148 ft
Runway elevation 198 ft Runway displaced threshold 0 ft Runway heading 92
Runway 28 Runway length 10499 ft Runway width 148 ft
Runway elevation 254 ft Runway displaced threshold 0 ft Runway heading 272

 AIRPORT FREQUENCIES
Type APP Name AGADIR APP Frequency 120.9 MHZ
Type TWR Name AGADIR TWR Frequency 119.5 MHZ

 AIRPORT NEAR NAVIGATION AIDS
Type VOR-DME Name Agadir Frequency 117200 KHZ
Type NDB Name Agadir Frequency 396 KHZ
Type NDB Name Agadir Frequency 402 KHZ